createdAt,value
2022-10-16T00:01:21.585Z,0.20
2022-10-16T00:04:07.872Z,0.20
2022-10-16T00:06:53.747Z,0.20
2022-10-16T00:09:39.429Z,0.15
2022-10-16T00:12:25.369Z,0.10
2022-10-16T00:15:11.394Z,0.10
2022-10-16T00:17:57.113Z,0.20
2022-10-16T00:20:42.836Z,0.20
2022-10-16T00:23:28.664Z,0.10
2022-10-16T00:26:16.290Z,0.10
2022-10-16T00:29:02.404Z,0.20
2022-10-16T00:31:48.564Z,0.20
2022-10-16T00:34:34.378Z,0.20
2022-10-16T00:37:20.096Z,0.20
2022-10-16T00:40:06.350Z,0.10
2022-10-16T00:42:52.029Z,0.10
2022-10-16T00:45:37.736Z,0.10
2022-10-16T00:48:23.804Z,0.10
2022-10-16T00:51:09.542Z,0.10
2022-10-16T00:53:56.395Z,0.20
2022-10-16T00:56:43.336Z,0.25
2022-10-16T00:59:38.802Z,0.10
2022-10-16T01:02:24.630Z,0.10
2022-10-16T01:05:10.700Z,0.20
2022-10-16T01:07:56.709Z,0.10
2022-10-16T01:10:50.778Z,0.15
2022-10-16T01:13:42.682Z,0.15
2022-10-16T01:16:50.894Z,0.15
2022-10-16T01:20:07.697Z,0.15
2022-10-16T01:23:08.248Z,0.20
2022-10-16T01:26:23.067Z,0.10
2022-10-16T01:29:16.477Z,0.10
2022-10-16T01:32:08.382Z,0.10
2022-10-16T01:35:01.851Z,0.20
2022-10-16T01:38:00.413Z,0.10
2022-10-16T01:40:50.893Z,0.10
2022-10-16T01:43:47.787Z,0.10
2022-10-16T01:46:37.442Z,0.10
2022-10-16T01:49:27.299Z,0.20
2022-10-16T01:52:21.192Z,0.10
2022-10-16T01:55:09.722Z,0.10
2022-10-16T01:57:56.318Z,0.20
2022-10-16T02:00:45.577Z,0.17
2022-10-16T02:03:33.225Z,0.10
2022-10-16T02:06:19.079Z,0.20
2022-10-16T02:09:04.732Z,0.10
2022-10-16T02:11:53.785Z,0.20
2022-10-16T02:14:40.531Z,0.10
2022-10-16T02:17:26.976Z,0.20
2022-10-16T02:20:12.892Z,0.17
2022-10-16T02:22:59.431Z,0.10
2022-10-16T02:25:46.685Z,0.10
2022-10-16T02:28:54.483Z,0.10
2022-10-16T02:31:44.541Z,0.10
2022-10-16T02:34:31.668Z,0.10
2022-10-16T02:37:18.883Z,0.10
2022-10-16T02:40:06.120Z,0.10
2022-10-16T02:42:53.892Z,0.20
2022-10-16T02:45:40.224Z,0.10
2022-10-16T02:48:26.234Z,0.10
2022-10-16T02:51:11.784Z,0.20
2022-10-16T02:53:57.485Z,0.20
2022-10-16T02:56:43.142Z,0.10
2022-10-16T02:59:28.750Z,0.13
2022-10-16T03:02:14.989Z,0.20
2022-10-16T03:05:00.565Z,0.10
2022-10-16T03:07:46.364Z,0.10
2022-10-16T03:10:32.874Z,0.10
2022-10-16T03:13:21.365Z,0.10
2022-10-16T03:16:07.141Z,0.10
2022-10-16T03:18:55.218Z,0.10
2022-10-16T03:21:41.124Z,0.10
2022-10-16T03:24:28.551Z,0.10
2022-10-16T03:27:16.404Z,0.10
2022-10-16T03:30:09.616Z,0.10
2022-10-16T03:32:55.347Z,0.10
2022-10-16T03:35:41.192Z,0.10
2022-10-16T03:38:27.091Z,0.10
2022-10-16T03:41:12.939Z,0.10
2022-10-16T03:43:58.732Z,0.20
2022-10-16T03:46:44.501Z,0.10
2022-10-16T03:49:30.067Z,0.20
2022-10-16T03:55:10.208Z,0.10
2022-10-16T03:57:56.330Z,0.10
2022-10-16T04:00:43.890Z,0.10
2022-10-16T04:03:30.055Z,0.10
2022-10-16T04:06:15.801Z,0.10
2022-10-16T04:09:01.477Z,0.10
2022-10-16T04:11:47.187Z,0.10
2022-10-16T04:14:32.798Z,0.20
2022-10-16T04:17:18.735Z,0.10
2022-10-16T04:20:05.349Z,0.10
2022-10-16T04:22:51.115Z,0.20
2022-10-16T04:25:36.996Z,0.20
2022-10-16T04:28:22.823Z,0.10
2022-10-16T04:31:08.877Z,0.10
2022-10-16T04:33:54.525Z,0.17
2022-10-16T04:36:40.150Z,0.10
2022-10-16T04:39:25.943Z,0.10
2022-10-16T04:42:12.035Z,0.17
2022-10-16T04:44:57.938Z,0.20
2022-10-16T04:47:43.582Z,0.20
2022-10-16T04:50:29.374Z,0.10
2022-10-16T04:53:25.040Z,0.15
2022-10-16T04:56:10.997Z,0.20
2022-10-16T04:58:56.674Z,0.20
2022-10-16T05:01:42.403Z,0.20
2022-10-16T05:04:28.369Z,0.10
2022-10-16T05:07:14.198Z,0.20
2022-10-16T05:09:59.993Z,0.20
2022-10-16T05:12:45.776Z,0.20
2022-10-16T05:15:32.086Z,0.20
2022-10-16T05:18:18.377Z,0.20
2022-10-16T05:21:04.169Z,0.17
2022-10-16T05:23:50.173Z,0.10
2022-10-16T05:26:36.132Z,0.20
2022-10-16T05:29:22.354Z,0.20
2022-10-16T05:32:08.072Z,0.10
2022-10-16T05:34:53.871Z,0.10
2022-10-16T05:37:39.511Z,0.10
2022-10-16T05:40:25.247Z,0.20
2022-10-16T05:43:11.319Z,0.20
2022-10-16T05:46:04.858Z,0.10
2022-10-16T05:51:42.589Z,0.10
2022-10-16T05:54:28.850Z,0.13
2022-10-16T05:57:18.485Z,0.20
2022-10-16T06:00:12.654Z,0.20
2022-10-16T06:03:02.442Z,0.20
2022-10-16T06:05:50.180Z,0.22
2022-10-16T06:08:36.275Z,0.20
2022-10-16T06:11:24.336Z,0.20
2022-10-16T06:14:10.611Z,0.10
2022-10-16T06:16:56.806Z,0.20
2022-10-16T06:19:44.166Z,0.20
2022-10-16T06:22:30.471Z,0.20
2022-10-16T06:25:17.879Z,0.20
2022-10-16T06:28:05.219Z,0.10
2022-10-16T06:31:04.093Z,0.20
2022-10-16T06:33:53.030Z,0.20
2022-10-16T06:36:39.617Z,0.10
2022-10-16T06:39:25.650Z,0.10
2022-10-16T06:42:11.580Z,0.20
2022-10-16T06:44:57.515Z,0.10
2022-10-16T06:47:43.421Z,0.15
2022-10-16T06:50:30.299Z,0.10
2022-10-16T06:53:16.347Z,0.15
2022-10-16T06:56:13.239Z,0.10
2022-10-16T06:58:59.962Z,0.20
2022-10-16T07:01:46.195Z,0.10
2022-10-16T07:04:32.222Z,0.20
2022-10-16T07:07:18.453Z,0.15
2022-10-16T07:10:04.491Z,0.20
2022-10-16T07:12:50.119Z,0.20
2022-10-16T07:15:35.919Z,0.13
2022-10-16T07:18:22.080Z,0.20
2022-10-16T07:21:09.633Z,0.20
2022-10-16T07:24:00.299Z,0.20
2022-10-16T07:26:47.110Z,0.20
2022-10-16T07:29:33.406Z,0.15
2022-10-16T07:32:19.401Z,0.20
2022-10-16T07:35:05.688Z,0.20
2022-10-16T07:37:51.621Z,0.20
2022-10-16T07:40:37.401Z,0.25
2022-10-16T07:43:24.500Z,0.20
2022-10-16T07:46:10.734Z,0.10
2022-10-16T07:48:56.949Z,0.20
2022-10-16T07:51:42.715Z,0.20
2022-10-16T07:54:28.482Z,0.20
2022-10-16T07:57:20.127Z,0.20
2022-10-16T08:00:06.381Z,0.20
2022-10-16T08:03:01.404Z,0.20
2022-10-16T08:05:47.237Z,0.15
2022-10-16T08:08:33.286Z,0.20
2022-10-16T08:11:19.303Z,0.10
2022-10-16T08:14:04.933Z,0.20
2022-10-16T08:16:50.706Z,0.20
2022-10-16T08:19:36.482Z,0.17
2022-10-16T08:22:22.851Z,0.20
2022-10-16T08:25:08.953Z,0.20
2022-10-16T08:27:54.903Z,0.20
2022-10-16T08:30:41.134Z,0.30
2022-10-16T08:33:27.187Z,0.20
2022-10-16T08:36:13.051Z,0.35
2022-10-16T08:38:58.758Z,0.20
2022-10-16T08:42:16.784Z,0.20
2022-10-16T08:45:24.742Z,0.20
2022-10-16T08:48:19.801Z,0.30
2022-10-16T08:51:05.728Z,0.38
2022-10-16T08:54:06.498Z,0.30
2022-10-16T08:56:52.438Z,0.40
2022-10-16T08:59:38.149Z,0.50
2022-10-16T09:02:39.345Z,0.40
2022-10-16T09:05:50.695Z,0.43
2022-10-16T09:08:47.103Z,0.45
2022-10-16T09:12:10.348Z,0.50
2022-10-16T09:15:17.697Z,0.30
2022-10-16T09:18:16.172Z,0.60
2022-10-16T09:21:17.239Z,0.60
2022-10-16T09:24:12.908Z,0.50
2022-10-16T09:26:59.021Z,0.52
2022-10-16T09:29:45.112Z,0.40
2022-10-16T09:32:30.940Z,0.50
2022-10-16T09:35:21.116Z,0.55
2022-10-16T09:38:07.954Z,0.57
2022-10-16T09:40:58.994Z,0.50
2022-10-16T09:44:03.185Z,0.75
2022-10-16T09:46:49.111Z,0.70
2022-10-16T09:49:35.194Z,0.80
2022-10-16T09:52:21.479Z,0.40
2022-10-16T09:55:25.705Z,0.50
2022-10-16T09:58:15.211Z,0.40
2022-10-16T10:01:01.094Z,0.50
2022-10-16T10:03:48.755Z,0.40
2022-10-16T10:06:40.500Z,0.55
2022-10-16T10:09:29.057Z,0.52
2022-10-16T10:12:28.767Z,0.40
2022-10-16T10:15:22.565Z,0.50
2022-10-16T10:18:24.901Z,0.30
2022-10-16T10:21:15.008Z,0.30
2022-10-16T10:24:01.584Z,0.20
2022-10-16T10:26:58.704Z,0.20
2022-10-16T10:30:02.759Z,0.40
2022-10-16T10:33:27.183Z,0.30
2022-10-16T10:36:29.835Z,0.30
2022-10-16T10:39:48.110Z,0.40
2022-10-16T10:42:36.766Z,0.40
2022-10-16T10:45:29.145Z,0.40
2022-10-16T10:51:48.583Z,0.30
2022-10-16T10:55:02.460Z,0.30
2022-10-16T10:58:32.303Z,0.40
2022-10-16T11:01:35.441Z,0.30
2022-10-16T11:04:42.497Z,0.30
2022-10-16T11:07:36.306Z,0.30
2022-10-16T11:10:25.853Z,0.40
2022-10-16T11:13:35.170Z,0.40
2022-10-16T11:16:31.301Z,0.40
2022-10-16T11:19:35.971Z,0.60
2022-10-16T11:22:31.315Z,0.30
2022-10-16T11:25:29.219Z,0.50
2022-10-16T11:28:21.920Z,0.35
2022-10-16T11:31:28.027Z,0.53
2022-10-16T11:34:19.198Z,0.40
2022-10-16T11:37:20.946Z,0.50
2022-10-16T11:40:18.856Z,0.40
2022-10-16T11:43:16.180Z,0.50
2022-10-16T11:46:12.476Z,0.40
2022-10-16T11:49:10.303Z,0.40
2022-10-16T11:52:14.900Z,0.50
2022-10-16T11:55:05.687Z,0.60
2022-10-16T11:58:33.595Z,0.50
2022-10-16T12:01:31.038Z,0.50
2022-10-16T12:04:57.570Z,0.60
2022-10-16T12:08:10.348Z,0.70
2022-10-16T12:11:08.462Z,0.50
2022-10-16T12:14:12.878Z,0.50
2022-10-16T12:17:01.083Z,0.52
2022-10-16T12:20:00.620Z,0.43
2022-10-16T12:22:55.641Z,0.50
2022-10-16T12:25:47.579Z,0.60
2022-10-16T12:28:34.397Z,0.70
2022-10-16T12:31:20.528Z,0.70
2022-10-16T12:34:06.839Z,1.00
2022-10-16T12:36:53.559Z,0.50
2022-10-16T12:39:39.781Z,0.50
2022-10-16T12:42:35.799Z,0.68
2022-10-16T12:45:27.741Z,0.50
2022-10-16T12:48:29.187Z,0.60
2022-10-16T12:51:28.827Z,0.43
2022-10-16T12:54:22.105Z,0.57
2022-10-16T12:57:35.499Z,0.60
2022-10-16T13:00:29.653Z,0.50
2022-10-16T13:03:31.188Z,0.47
2022-10-16T13:06:58.674Z,0.60
2022-10-16T13:09:59.971Z,0.47
2022-10-16T13:13:04.293Z,0.40
2022-10-16T13:16:19.406Z,0.32
2022-10-16T13:19:45.355Z,0.30
2022-10-16T13:22:35.019Z,0.40
2022-10-16T13:25:51.879Z,0.30
2022-10-16T13:28:39.406Z,0.40
2022-10-16T13:31:25.931Z,0.40
2022-10-16T13:34:20.250Z,0.30
2022-10-16T13:37:20.926Z,0.30
2022-10-16T13:40:20.991Z,0.40
2022-10-16T13:43:06.702Z,0.40
2022-10-16T13:45:57.804Z,0.30
2022-10-16T13:48:43.425Z,0.20
2022-10-16T13:51:30.181Z,0.20
2022-10-16T13:54:15.998Z,0.30
2022-10-16T13:57:26.377Z,0.20
2022-10-16T14:00:31.096Z,0.20
2022-10-16T14:03:17.728Z,0.20
2022-10-16T14:06:05.341Z,0.30
2022-10-16T14:09:12.764Z,0.30
2022-10-16T14:12:03.724Z,0.40
2022-10-16T14:14:52.032Z,0.28
2022-10-16T14:17:44.983Z,0.20
2022-10-16T14:20:33.433Z,0.30
2022-10-16T14:23:31.059Z,0.30
2022-10-16T14:26:20.760Z,0.20
2022-10-16T14:29:15.626Z,0.20
2022-10-16T14:32:06.535Z,0.20
2022-10-16T14:34:55.640Z,0.30
2022-10-16T14:37:41.551Z,0.22
2022-10-16T14:40:31.335Z,0.20
2022-10-16T14:43:30.666Z,0.20
2022-10-16T14:49:11.487Z,0.20
2022-10-16T14:51:57.236Z,0.10
2022-10-16T14:54:43.000Z,0.20
2022-10-16T14:57:29.756Z,0.13
2022-10-16T15:00:24.872Z,0.10
2022-10-16T15:03:11.083Z,0.20
2022-10-16T15:05:57.150Z,0.20
2022-10-16T15:08:43.194Z,0.10
2022-10-16T15:11:28.872Z,0.20
2022-10-16T15:17:05.695Z,0.20
2022-10-16T15:19:52.320Z,0.10
2022-10-16T15:22:38.433Z,0.15
2022-10-16T15:25:33.025Z,0.10
2022-10-16T15:28:19.917Z,0.10
2022-10-16T15:31:06.230Z,0.10
2022-10-16T15:33:57.009Z,0.10
2022-10-16T15:36:43.025Z,0.10
2022-10-16T15:39:28.658Z,0.13
2022-10-16T15:42:14.756Z,0.10
2022-10-16T15:45:00.717Z,0.15
2022-10-16T15:47:46.457Z,0.20
2022-10-16T15:50:32.942Z,0.20
2022-10-16T15:53:19.090Z,0.10
2022-10-16T15:56:06.461Z,0.20
2022-10-16T15:58:56.189Z,0.10
2022-10-16T16:01:42.372Z,0.10
2022-10-16T16:04:46.480Z,0.15
2022-10-16T16:07:35.318Z,0.17
2022-10-16T16:10:22.068Z,0.20
2022-10-16T16:13:08.062Z,0.10
2022-10-16T16:15:54.117Z,0.10
2022-10-16T16:18:40.652Z,0.17
2022-10-16T16:21:26.703Z,0.13
2022-10-16T16:24:12.860Z,0.10
2022-10-16T16:26:58.601Z,0.10
2022-10-16T16:29:44.661Z,0.20
2022-10-16T16:32:30.924Z,0.20
2022-10-16T16:35:17.192Z,0.10
2022-10-16T16:38:03.381Z,0.10
2022-10-16T16:40:52.849Z,0.10
2022-10-16T16:43:42.247Z,0.10
2022-10-16T16:46:28.093Z,0.10
2022-10-16T16:49:15.894Z,0.10
2022-10-16T16:52:01.658Z,0.10
2022-10-16T16:54:52.777Z,0.10
2022-10-16T16:57:39.165Z,0.10
2022-10-16T17:00:24.962Z,0.15
2022-10-16T17:03:11.657Z,0.17
2022-10-16T17:06:05.569Z,0.10
2022-10-16T17:08:51.678Z,0.10
2022-10-16T17:11:37.298Z,0.10
2022-10-16T17:14:23.483Z,0.10
2022-10-16T17:17:09.292Z,0.10
2022-10-16T17:19:54.926Z,0.10
2022-10-16T17:22:40.802Z,0.10
2022-10-16T17:25:28.444Z,0.10
2022-10-16T17:28:15.525Z,0.10
2022-10-16T17:31:15.824Z,0.20
2022-10-16T17:34:02.486Z,0.10
2022-10-16T17:36:48.361Z,0.30
2022-10-16T17:39:34.521Z,0.10
2022-10-16T17:42:20.401Z,0.10
2022-10-16T17:45:07.211Z,0.10
2022-10-16T17:47:53.229Z,0.15
2022-10-16T17:50:43.412Z,0.13
2022-10-16T17:53:29.097Z,0.10
2022-10-16T17:56:15.223Z,0.10
2022-10-16T17:59:02.310Z,0.20
2022-10-16T18:01:48.290Z,0.20
2022-10-16T18:04:34.121Z,0.20
2022-10-16T18:07:20.243Z,0.10
2022-10-16T18:10:11.647Z,0.13
2022-10-16T18:12:58.024Z,0.10
2022-10-16T18:15:44.073Z,0.10
2022-10-16T18:18:30.509Z,0.10
2022-10-16T18:21:18.460Z,0.30
2022-10-16T18:24:04.552Z,0.20
2022-10-16T18:26:52.419Z,0.20
2022-10-16T18:29:38.715Z,0.22
2022-10-16T18:32:25.054Z,0.20
2022-10-16T18:35:10.908Z,0.10
2022-10-16T18:38:00.607Z,0.20
2022-10-16T18:40:47.245Z,0.10
2022-10-16T18:43:34.231Z,0.20
2022-10-16T18:46:22.055Z,0.20
2022-10-16T18:49:08.187Z,0.20
2022-10-16T18:51:56.843Z,0.13
2022-10-16T18:54:42.613Z,0.10
2022-10-16T18:57:30.415Z,0.20
2022-10-16T19:00:16.862Z,0.20
2022-10-16T19:03:03.012Z,0.30
2022-10-16T19:05:49.003Z,0.22
2022-10-16T19:08:38.843Z,0.30
2022-10-16T19:11:26.398Z,0.30
2022-10-16T19:14:14.031Z,0.20
2022-10-16T19:17:00.109Z,0.20
2022-10-16T19:19:46.351Z,0.20
2022-10-16T19:22:51.858Z,0.10
2022-10-16T19:25:38.663Z,0.20
2022-10-16T19:28:25.003Z,0.10
2022-10-16T19:31:13.519Z,0.10
2022-10-16T19:34:00.942Z,0.20
2022-10-16T19:36:46.947Z,0.10
2022-10-16T19:39:33.026Z,0.10
2022-10-16T19:42:19.230Z,0.20
2022-10-16T19:45:05.669Z,0.30
2022-10-16T19:47:51.467Z,0.30
2022-10-16T19:50:37.273Z,0.30
2022-10-16T19:53:23.335Z,0.15
2022-10-16T19:56:23.445Z,0.30
2022-10-16T19:59:12.821Z,0.20
2022-10-16T20:01:58.767Z,0.10
2022-10-16T20:04:44.700Z,0.20
2022-10-16T20:07:32.701Z,0.20
2022-10-16T20:10:20.957Z,0.20
2022-10-16T20:13:08.455Z,0.20
2022-10-16T20:15:54.656Z,0.10
2022-10-16T20:18:41.244Z,0.17
2022-10-16T20:21:30.487Z,0.10
2022-10-16T20:24:16.894Z,0.20
2022-10-16T20:27:03.158Z,0.17
2022-10-16T20:29:49.429Z,0.10
2022-10-16T20:32:35.365Z,0.10
2022-10-16T20:35:21.143Z,0.20
2022-10-16T20:38:07.377Z,0.10
2022-10-16T20:40:53.775Z,0.10
2022-10-16T20:46:33.954Z,0.10
2022-10-16T20:49:35.897Z,0.10
2022-10-16T20:52:27.077Z,0.20
2022-10-16T20:55:13.191Z,0.10
2022-10-16T20:57:59.195Z,0.20
2022-10-16T21:00:46.819Z,0.20
2022-10-16T21:03:32.653Z,0.17
2022-10-16T21:06:18.573Z,0.20
2022-10-16T21:09:06.723Z,0.20
2022-10-16T21:11:52.500Z,0.17
2022-10-16T21:14:42.307Z,0.20
2022-10-16T21:17:33.500Z,0.20
2022-10-16T21:20:19.539Z,0.20
2022-10-16T21:23:05.179Z,0.17
2022-10-16T21:25:51.151Z,0.10
2022-10-16T21:28:38.195Z,0.20
2022-10-16T21:31:24.241Z,0.10
2022-10-16T21:34:10.477Z,0.10
2022-10-16T21:36:56.466Z,0.10
2022-10-16T21:39:42.206Z,0.13
2022-10-16T21:42:28.435Z,0.10
2022-10-16T21:45:14.752Z,0.10
2022-10-16T21:48:00.907Z,0.10
2022-10-16T21:50:49.915Z,0.10
2022-10-16T21:53:35.559Z,0.10
2022-10-16T21:56:21.423Z,0.20
2022-10-16T21:59:07.375Z,0.10
2022-10-16T22:01:54.147Z,0.10
2022-10-16T22:04:40.109Z,0.10
2022-10-16T22:07:26.106Z,0.10
2022-10-16T22:10:12.138Z,0.10
2022-10-16T22:12:58.239Z,0.10
2022-10-16T22:15:53.389Z,0.10
2022-10-16T22:18:39.875Z,0.10
2022-10-16T22:21:28.511Z,0.10
2022-10-16T22:24:15.651Z,0.10
2022-10-16T22:27:01.443Z,0.10
2022-10-16T22:29:51.192Z,0.10
2022-10-16T22:32:36.921Z,0.10
2022-10-16T22:35:22.901Z,0.10
2022-10-16T22:38:08.735Z,0.10
2022-10-16T22:40:54.562Z,0.10
2022-10-16T22:43:45.430Z,0.10
2022-10-16T22:46:31.698Z,0.10
2022-10-16T22:49:20.010Z,0.10
2022-10-16T22:52:05.708Z,0.10
2022-10-16T22:54:51.415Z,0.10
2022-10-16T22:57:37.159Z,0.20
2022-10-16T23:00:23.425Z,0.10
2022-10-16T23:03:09.106Z,0.10
2022-10-16T23:05:55.035Z,0.20
2022-10-16T23:08:41.234Z,0.10
2022-10-16T23:11:28.750Z,0.10
2022-10-16T23:14:14.598Z,0.10
2022-10-16T23:17:00.352Z,0.20
2022-10-16T23:19:46.290Z,0.15
2022-10-16T23:22:32.312Z,0.10
2022-10-16T23:25:18.127Z,0.10
2022-10-16T23:28:04.711Z,0.10
2022-10-16T23:30:50.582Z,0.20
2022-10-16T23:33:37.375Z,0.20
2022-10-16T23:36:24.067Z,0.20
2022-10-16T23:39:09.952Z,0.20
2022-10-16T23:41:55.610Z,0.20
2022-10-16T23:44:41.361Z,0.28
2022-10-16T23:47:27.265Z,0.15
2022-10-16T23:50:13.303Z,0.20
2022-10-16T23:52:58.985Z,0.10
2022-10-16T23:55:44.642Z,0.20
2022-10-16T23:58:30.655Z,0.20
